createdAt,value
2022-08-05T10:14:03.908Z,101214.90
2022-08-05T10:18:49.203Z,101216.34
2022-08-05T10:28:16.880Z,101213.33
2022-08-05T10:33:05.140Z,101211.01
2022-08-05T10:37:40.220Z,101206.17
2022-08-05T10:42:32.604Z,101196.36
2022-08-05T10:47:25.759Z,101192.66
2022-08-05T10:52:05.560Z,101189.88
2022-08-05T10:56:43.175Z,101190.95
2022-08-05T11:01:55.290Z,101185.36
2022-08-05T11:06:43.848Z,101184.76
2022-08-05T11:11:24.808Z,101178.16
2022-08-05T11:16:18.402Z,101171.95
2022-08-05T11:21:12.287Z,101163.05
2022-08-05T11:26:04.964Z,101161.67
2022-08-05T11:30:47.849Z,101160.09
2022-08-05T11:36:04.461Z,101152.27
2022-08-05T11:40:27.705Z,101147.23
2022-08-05T11:45:14.575Z,101141.95
2022-08-05T11:50:10.251Z,101141.76
2022-08-05T11:54:48.559Z,101144.83
2022-08-05T11:59:31.654Z,101137.59
2022-08-05T12:04:58.988Z,101132.91
2022-08-05T12:09:24.593Z,101130.26
2022-08-05T12:14:17.029Z,101122.56
2022-08-05T12:18:53.123Z,101120.55
2022-08-05T12:23:29.619Z,101115.70
2022-08-05T12:27:33.035Z,101113.71
2022-08-05T12:32:04.536Z,101116.15
2022-08-05T12:36:53.989Z,101111.23
2022-08-05T12:41:12.441Z,101109.24
2022-08-05T12:45:49.847Z,101102.36
2022-08-05T12:50:39.618Z,101101.81
2022-08-05T12:55:22.286Z,101101.09
2022-08-05T13:00:08.798Z,101094.02
2022-08-05T13:09:28.358Z,101082.17
2022-08-05T13:14:04.637Z,101079.36
2022-08-05T13:18:42.127Z,101079.29
2022-08-05T13:23:16.310Z,101067.36
2022-08-05T13:28:04.706Z,101063.48
2022-08-05T13:32:46.698Z,101054.98
2022-08-05T13:37:27.171Z,101041.61
2022-08-05T13:42:02.606Z,101041.84
2022-08-05T13:46:30.726Z,101038.15
2022-08-05T13:51:01.787Z,101038.48
2022-08-05T13:55:40.732Z,101034.79
2022-08-05T14:00:09.008Z,101033.37
2022-08-05T14:04:50.102Z,101035.27
2022-08-05T14:09:37.121Z,101054.01
2022-08-05T14:14:33.647Z,101055.36
2022-08-05T14:19:20.452Z,101059.05
2022-08-05T14:23:48.096Z,101058.12
2022-08-05T14:28:35.077Z,101060.94
2022-08-05T14:32:43.355Z,101064.86
2022-08-05T14:37:01.048Z,101053.60
2022-08-05T14:42:08.711Z,101051.13
2022-08-05T14:46:41.753Z,101056.75
2022-08-05T14:51:15.456Z,101051.26
2022-08-05T14:56:02.805Z,101052.06
2022-08-05T15:00:59.198Z,101062.56
2022-08-05T15:06:07.857Z,101060.83
2022-08-05T15:10:30.258Z,101059.91
2022-08-05T15:15:54.536Z,101054.59
2022-08-05T15:20:25.846Z,101055.34
2022-08-05T15:24:48.757Z,101056.79
2022-08-05T15:29:41.802Z,101047.34
2022-08-05T15:34:31.653Z,101042.58
2022-08-05T15:41:01.898Z,101043.77
2022-08-05T15:44:12.825Z,101047.15
2022-08-05T15:48:53.097Z,101046.95
2022-08-05T15:53:22.774Z,101043.95
2022-08-05T15:57:54.033Z,101044.73
2022-08-05T16:02:30.456Z,101040.01
2022-08-05T16:07:04.533Z,101037.13
2022-08-05T16:11:39.880Z,101032.09
2022-08-05T16:16:26.928Z,101017.70
2022-08-05T16:20:59.555Z,101008.54
2022-08-05T16:25:37.332Z,101024.84
2022-08-05T16:30:26.128Z,101017.66
2022-08-05T16:40:07.104Z,101005.63
2022-08-05T16:44:32.319Z,101006.89
2022-08-05T16:49:05.928Z,101002.20
2022-08-05T16:54:04.086Z,100998.95
2022-08-05T16:58:28.423Z,101015.80
2022-08-05T17:03:03.545Z,101017.45
2022-08-05T17:07:43.614Z,101036.35
2022-08-05T17:12:32.318Z,101052.27
2022-08-05T17:17:05.931Z,101086.30
2022-08-05T17:21:39.779Z,101111.84
2022-08-05T17:26:07.612Z,101097.41
2022-08-05T17:30:50.756Z,101103.80
2022-08-05T17:35:25.364Z,101099.48
2022-08-05T17:40:05.897Z,101096.60
2022-08-05T17:44:50.312Z,101103.71
2022-08-05T17:49:23.831Z,101114.78
2022-08-05T17:54:00.974Z,101124.40
2022-08-05T17:58:32.342Z,101157.09
2022-08-05T18:03:06.167Z,101190.20
2022-08-05T18:07:40.933Z,101249.20
2022-08-05T18:18:09.213Z,101244.31
2022-08-05T18:22:46.086Z,101248.86
2022-08-05T18:27:24.130Z,101256.46
2022-08-05T18:31:57.506Z,101214.90
2022-08-05T18:36:31.212Z,101217.61
2022-08-05T18:41:58.533Z,101216.15
2022-08-05T18:45:58.935Z,101170.77
2022-08-05T18:50:46.773Z,101186.35
2022-08-05T18:55:29.994Z,101192.75
2022-08-05T19:00:27.033Z,101178.17
2022-08-05T19:06:05.775Z,101184.16
2022-08-05T19:09:40.356Z,101194.92
2022-08-05T19:14:01.038Z,101191.70
2022-08-05T19:18:39.790Z,101196.47
2022-08-05T19:22:52.913Z,101201.29
2022-08-05T19:27:30.215Z,101213.14
2022-08-05T19:31:44.732Z,101219.21
2022-08-05T19:36:24.512Z,101233.80
2022-08-05T19:40:59.217Z,101250.58
2022-08-05T19:45:54.618Z,101248.09
2022-08-05T19:50:33.510Z,101240.52
2022-08-05T19:54:50.898Z,101238.39
2022-08-05T19:59:54.711Z,101236.58
2022-08-05T20:04:23.144Z,101256.34
2022-08-05T20:09:00.798Z,101258.10
2022-08-05T20:13:58.804Z,101262.75
2022-08-05T20:18:36.022Z,101261.98
2022-08-05T20:23:04.822Z,101255.12
2022-08-05T20:27:42.126Z,101270.31
2022-08-05T20:32:08.732Z,101279.42
2022-08-05T20:36:19.889Z,101291.16
2022-08-05T20:40:53.536Z,101305.12
2022-08-05T20:45:56.562Z,101333.92
2022-08-05T20:50:09.437Z,101353.13
2022-08-05T20:54:59.441Z,101359.87
2022-08-05T20:59:14.038Z,101373.67
2022-08-05T21:03:28.836Z,101376.27
2022-08-05T21:07:52.042Z,101358.16
2022-08-05T21:12:07.368Z,101376.77
2022-08-05T21:21:03.392Z,101367.17
2022-08-05T21:25:16.164Z,101365.98
2022-08-05T21:29:48.261Z,101369.76
2022-08-05T21:34:03.931Z,101383.05
2022-08-05T21:38:40.665Z,101371.88
2022-08-05T21:43:06.512Z,101372.56
2022-08-05T21:47:33.056Z,101373.32
2022-08-05T21:52:21.732Z,101373.86
2022-08-05T21:56:28.224Z,101371.81
2022-08-05T22:00:40.823Z,101381.18
2022-08-05T22:05:48.380Z,101379.29
2022-08-05T22:10:01.234Z,101377.84
2022-08-05T22:14:35.325Z,101382.11
2022-08-05T22:18:40.483Z,101379.89
2022-08-05T22:22:59.342Z,101384.22
2022-08-05T22:27:13.117Z,101387.59
2022-08-05T22:31:29.916Z,101389.60
2022-08-05T22:35:48.864Z,101394.23
2022-08-05T22:40:01.574Z,101394.46
2022-08-05T22:44:14.012Z,101402.63
2022-08-05T22:48:27.292Z,101404.67
2022-08-05T22:52:40.025Z,101408.73
2022-08-05T22:56:52.283Z,101409.36
2022-08-05T23:01:06.224Z,101411.38
2022-08-05T23:05:18.673Z,101411.42
2022-08-05T23:09:57.165Z,101411.36
2022-08-05T23:14:03.417Z,101405.59
2022-08-05T23:18:11.779Z,101408.65
2022-08-05T23:22:28.791Z,101421.74
2022-08-05T23:26:55.042Z,101428.69
2022-08-05T23:31:17.303Z,101423.01
2022-08-05T23:35:34.253Z,101429.84
2022-08-05T23:40:07.863Z,101435.75
2022-08-05T23:44:22.552Z,101436.21
2022-08-05T23:48:37.913Z,101443.05
2022-08-05T23:52:52.032Z,101455.08
2022-08-05T23:57:04.181Z,101458.79
